ADDS METAR Data INFO
IDs: Format: Raw Decoded Include TAF

Data at: 1051 UTC 19 Oct 2017

KPGV 191035Z AUTO 00000KT 1SM BR VV007 08/08 A3029 RMK AO2
KPGV 191015Z AUTO 00000KT 3/4SM BR VV005 08/08 A3029 RMK AO2
KPGV 190955Z AUTO 00000KT 7SM CLR 09/08 A3029 RMK AO2
KPGV 190935Z AUTO 00000KT 2 1/2SM BR CLR 08/08 A3029 RMK AO2 VIS 1V5
KPGV 190915Z AUTO 00000KT 1/2SM FG VV005 09/09 A3028 RMK AO2
KPGV 190855Z AUTO 00000KT 1SM BR VV007 09/09 A3028 RMK AO2
KPGV 190835Z AUTO 00000KT 1SM BR VV007 08/08 A3028 RMK AO2
KPGV 190815Z AUTO 00000KT 1 1/4SM BR VV007 08/08 A3028 RMK AO2
KPGV 190755Z AUTO 00000KT 2SM BR CLR 08/08 A3029 RMK AO2 VIS 1 1/4V4
KPGV 190735Z AUTO 00000KT 1 1/2SM BR VV007 09/09 A3029 RMK AO2 VIS 3/4V5
KPGV 190715Z AUTO 00000KT 3/4SM BR VV005 08/08 A3030 RMK AO2
KPGV 190655Z AUTO 00000KT 1 3/4SM BR VV007 08/08 A3030 RMK AO2 VIS 1/2V5
KPGV 190635Z AUTO 00000KT 7SM CLR 10/10 A3030 RMK AO2
KPGV 190615Z AUTO 00000KT 1SM BR VV007 08/08 A3030 RMK AO2
KPGV 190555Z AUTO 00000KT 1SM BR VV007 09/09 A3030 RMK AO2
KPGV 190535Z AUTO 00000KT 3/4SM BR VV005 10/09 A3030 RMK AO2
KPGV 190515Z AUTO 00000KT 2SM BR CLR 10/10 A3031 RMK AO2
KPGV 190455Z AUTO 00000KT 2SM BR CLR 11/11 A3031 RMK AO2
KPGV 190435Z AUTO 00000KT 7SM CLR 11/11 A3031 RMK AO2
KPGV 190415Z AUTO 00000KT 5SM BR CLR 11/10 A3031 RMK AO2
KPGV 190355Z AUTO 00000KT 10SM CLR 12/11 A3032 RMK AO2
KPGV 190335Z AUTO 00000KT 10SM CLR 12/12 A3032 RMK AO2
KPGV 190315Z AUTO 00000KT 10SM CLR 13/12 A3032 RMK AO2
KPGV 190255Z AUTO 00000KT 10SM CLR 13/12 A3032 RMK AO2
KPGV 190235Z AUTO 00000KT 10SM CLR 12/12 A3032 RMK AO2
KPGV 190215Z AUTO 00000KT 5SM BR CLR 12/12 A3033 RMK AO2
KPGV 190155Z AUTO 00000KT 10SM CLR 12/12 A3033 RMK AO2
KPGV 190135Z AUTO 00000KT 10SM CLR 12/12 A3033 RMK AO2
KPGV 190115Z AUTO 00000KT 10SM CLR 13/12 A3033 RMK AO2
KPGV 190055Z AUTO 00000KT 10SM CLR 13/12 A3033 RMK AO2
KPGV 190035Z AUTO 00000KT 10SM CLR 13/13 A3032 RMK AO2
KPGV 190015Z AUTO 00000KT 10SM CLR 13/12 A3033 RMK AO2
KPGV 182355Z AUTO 00000KT 10SM CLR 14/13 A3032 RMK AO2
KPGV 182335Z AUTO 00000KT 10SM CLR 14/12 A3032 RMK AO2
KPGV 182315Z AUTO 00000KT 10SM CLR 15/12 A3032 RMK AO2
KPGV 182255Z AUTO 06003KT 10SM CLR 17/12 A3031 RMK AO2
KPGV 182235Z AUTO 07003KT 10SM CLR 19/12 A3031 RMK AO2
KPGV 182215Z AUTO 05003KT 10SM CLR 20/12 A3030 RMK AO2
KPGV 182155Z AUTO 07005KT 10SM CLR 20/12 A3030 RMK AO2
KPGV 182135Z AUTO 07003KT 10SM CLR 21/11 A3030 RMK AO2
KPGV 182115Z AUTO 06004KT 10SM CLR 21/11 A3031 RMK AO2
KPGV 182055Z AUTO 04004KT 10SM CLR 21/11 A3031 RMK AO2
KPGV 182035Z AUTO 05008KT 10SM CLR 21/10 A3031 RMK AO2
KPGV 182015Z AUTO 00000KT 10SM CLR 21/10 A3031 RMK AO2
KPGV 181955Z AUTO 11003KT 10SM CLR 21/09 A3032 RMK AO2
KPGV 181935Z AUTO 07006KT 10SM CLR 21/09 A3032 RMK AO2
KPGV 181915Z AUTO 10004KT 10SM CLR 21/09 A3033 RMK AO2
KPGV 181855Z AUTO 06005KT 10SM CLR 21/09 A3033 RMK AO2
KPGV 181835Z AUTO 06004KT 10SM CLR 21/09 A3034 RMK AO2
KPGV 181815Z AUTO 03005KT 10SM CLR 21/09 A3034 RMK AO2
KPGV 181755Z AUTO 10005KT 10SM CLR 20/08 A3035 RMK AO2
KPGV 181735Z AUTO 05007KT 10SM CLR 20/09 A3036 RMK AO2
KPGV 181715Z AUTO 08007KT 10SM CLR 20/09 A3037 RMK AO2
KPGV 181655Z AUTO 08005KT 10SM CLR 19/08 A3038 RMK AO2
KPGV 181635Z AUTO 08006KT 10SM CLR 18/10 A3038 RMK AO2
KPGV 181615Z AUTO 11005KT 10SM CLR 18/10 A3039 RMK AO2
KPGV 181555Z AUTO 07008KT 10SM CLR 17/10 A3039 RMK AO2
KPGV 181535Z AUTO 04006KT 10SM CLR 17/10 A3038 RMK AO2
KPGV 181515Z AUTO 05008KT 10SM CLR 17/10 A3038 RMK AO2
KPGV 181455Z AUTO 02005KT 10SM CLR 16/10 A3038 RMK AO2
KPGV 181435Z AUTO 03007KT 10SM CLR 15/09 A3038 RMK AO2
KPGV 181415Z AUTO 03006KT 10SM CLR 13/09 A3039 RMK AO2
KPGV 181355Z AUTO 02005KT 7SM CLR 12/09 A3039 RMK AO2
KPGV 181335Z AUTO 01006KT 7SM CLR 11/08 A3038 RMK AO2
KPGV 181315Z AUTO 01005KT 7SM CLR 09/07 A3038 RMK AO2
KPGV 181255Z AUTO 01004KT 7SM CLR 07/07 A3037 RMK AO2
KPGV 181235Z AUTO 00000KT 7SM CLR 06/06 A3037 RMK AO2
KPGV 181215Z AUTO 00000KT 5SM BR CLR 05/05 A3036 RMK AO2
KPGV 181155Z AUTO 00000KT 4SM BR CLR 04/04 A3036 RMK AO2
KPGV 181135Z AUTO 00000KT 2SM BR CLR 04/04 A3036 RMK AO2 VIS 1V5
KPGV 181115Z AUTO 00000KT 5SM BR CLR 04/03 A3035 RMK AO2
KPGV 181055Z AUTO 00000KT 7SM CLR 05/04 A3035 RMK AO2
KPGV 181035Z AUTO 00000KT 5SM BR CLR 04/04 A3034 RMK AO2
KPGV 181015Z AUTO 00000KT 7SM CLR 05/05 A3034 RMK AO2
KPGV 180955Z AUTO 00000KT 5SM BR CLR 04/04 A3033 RMK AO2
KPGV 180935Z AUTO 00000KT 5SM BR CLR 05/05 A3033 RMK AO2
KPGV 180915Z AUTO 00000KT 2SM BR CLR 05/05 A3033 RMK AO2 VIS 1/2V5
KPGV 180855Z AUTO 00000KT 7SM CLR 04/04 A3032 RMK AO2
KPGV 180835Z AUTO 00000KT 7SM CLR 04/04 A3032 RMK AO2
KPGV 180815Z AUTO 00000KT 2 1/2SM -SN CLR 04/04 A3032 RMK AO2
KPGV 180755Z AUTO 00000KT 2SM BR CLR 05/05 A3032 RMK AO2 VIS 1/2V5
KPGV 180735Z AUTO 00000KT 7SM CLR 05/05 A3032 RMK AO2
KPGV 180715Z AUTO 00000KT 2 1/2SM BR CLR 05/05 A3032 RMK AO2 VIS 1 1/4V5
KPGV 180655Z AUTO 00000KT 7SM CLR 05/05 A3032 RMK AO2
KPGV 180635Z AUTO 00000KT 2SM BR CLR 05/05 A3032 RMK AO2 VIS 1/2V5
KPGV 180615Z AUTO 00000KT 4SM BR CLR 05/05 A3032 RMK AO2
KPGV 180555Z AUTO 00000KT 5SM BR CLR 05/05 A3033 RMK AO2
KPGV 180535Z AUTO 00000KT 7SM CLR 06/06 A3032 RMK AO2
KPGV 180515Z AUTO 00000KT 10SM CLR 06/05 A3033 RMK AO2
KPGV 180455Z AUTO 00000KT 7SM CLR 07/07 A3033 RMK AO2
KPGV 180435Z AUTO 00000KT 7SM CLR 06/06 A3034 RMK AO2
KPGV 180415Z AUTO 00000KT 7SM CLR 06/06 A3034 RMK AO2
KPGV 180355Z AUTO 00000KT 7SM CLR 06/06 A3034 RMK AO2
KPGV 180335Z AUTO 00000KT 10SM CLR 07/06 A3034 RMK AO2
KPGV 180315Z AUTO 00000KT 10SM CLR 06/05 A3034 RMK AO2
KPGV 180255Z AUTO 00000KT 10SM CLR 08/06 A3034 RMK AO2
KPGV 180235Z AUTO 00000KT 10SM CLR 08/06 A3034 RMK AO2
KPGV 180215Z AUTO 05003KT 10SM CLR 10/06 A3034 RMK AO2
KPGV 180155Z AUTO 05004KT 10SM CLR 11/06 A3033 RMK AO2
KPGV 180135Z AUTO 06004KT 10SM CLR 11/06 A3033 RMK AO2
KPGV 180115Z AUTO 05004KT 10SM CLR 08/06 A3032 RMK AO2
KPGV 180055Z AUTO 00000KT 10SM CLR 09/06 A3032 RMK AO2
KPGV 180035Z AUTO 00000KT 7SM CLR 10/07 A3032 RMK AO2
KPGV 180015Z AUTO 00000KT 10SM CLR 09/07 A3032 RMK AO2
KPGV 172355Z AUTO 00000KT 10SM CLR 10/07 A3031 RMK AO2
KPGV 172335Z AUTO 00000KT 10SM CLR 12/07 A3031 RMK AO2
KPGV 172315Z AUTO 06003KT 10SM CLR 13/06 A3030 RMK AO2
KPGV 172255Z AUTO 06004KT 10SM CLR 14/06 A3029 RMK AO2